createdAt,value
2022-12-12T00:02:07.360Z,95.50
2022-12-12T00:04:37.661Z,95.40
2022-12-12T00:07:08.385Z,95.80
2022-12-12T00:09:38.716Z,96.10
2022-12-12T00:12:09.118Z,96.20
2022-12-12T00:14:40.602Z,96.70
2022-12-12T00:17:11.928Z,96.90
2022-12-12T00:19:42.682Z,96.50
2022-12-12T00:22:15.080Z,96.50
2022-12-12T00:24:45.352Z,96.50
2022-12-12T00:27:15.653Z,96.40
2022-12-12T00:29:50.087Z,96.90
2022-12-12T00:32:25.260Z,96.50
2022-12-12T00:34:59.772Z,96.20
2022-12-12T00:37:30.017Z,94.20
2022-12-12T00:40:00.950Z,94.30
2022-12-12T00:42:33.493Z,93.00
2022-12-12T00:45:04.557Z,93.10
2022-12-12T00:47:35.144Z,91.90
2022-12-12T00:50:07.893Z,91.00
2022-12-12T00:52:39.643Z,91.20
2022-12-12T00:55:11.150Z,91.00
2022-12-12T00:57:43.285Z,91.30
2022-12-12T01:00:17.532Z,90.90
2022-12-12T01:02:50.325Z,91.10
2022-12-12T01:05:21.188Z,91.40
2022-12-12T01:07:52.073Z,90.70
2022-12-12T01:10:30.453Z,91.10
2022-12-12T01:13:00.990Z,91.80
2022-12-12T01:15:31.844Z,91.90
2022-12-12T01:18:02.048Z,92.80
2022-12-12T01:20:33.131Z,92.70
2022-12-12T01:23:03.849Z,93.30
2022-12-12T01:25:34.240Z,93.80
2022-12-12T01:28:05.112Z,94.00
2022-12-12T01:30:36.230Z,93.60
2022-12-12T01:33:08.129Z,93.60
2022-12-12T01:35:39.471Z,93.60
2022-12-12T01:38:10.445Z,91.80
2022-12-12T01:40:41.408Z,91.00
2022-12-12T01:43:20.788Z,92.10
2022-12-12T01:46:05.805Z,90.30
2022-12-12T01:48:47.514Z,88.10
2022-12-12T01:51:22.937Z,87.90
2022-12-12T01:54:05.183Z,86.00
2022-12-12T01:56:36.993Z,88.90
2022-12-12T01:59:09.666Z,89.00
2022-12-12T02:01:41.559Z,86.40
2022-12-12T02:04:13.265Z,85.70
2022-12-12T02:06:46.084Z,81.90
2022-12-12T02:09:22.508Z,82.30
2022-12-12T02:11:55.936Z,80.00
2022-12-12T02:14:43.637Z,83.80
2022-12-12T02:17:41.079Z,80.50
2022-12-12T02:20:39.033Z,80.40
2022-12-12T02:23:53.970Z,81.00
2022-12-12T02:26:55.309Z,80.50
2022-12-12T02:29:57.813Z,76.10
2022-12-12T02:36:21.852Z,77.20
2022-12-12T02:39:33.077Z,75.60
2022-12-12T02:42:20.978Z,73.90
2022-12-12T02:44:59.662Z,72.30
2022-12-12T02:47:35.056Z,76.00
2022-12-12T02:50:14.581Z,74.50
2022-12-12T02:52:50.997Z,74.60
2022-12-12T02:55:22.720Z,74.40
2022-12-12T02:57:56.247Z,73.30
2022-12-12T03:00:27.022Z,73.90
2022-12-12T03:03:40.145Z,73.20
2022-12-12T03:06:46.165Z,73.70
2022-12-12T03:09:19.869Z,70.70
2022-12-12T03:12:12.427Z,69.80
2022-12-12T03:14:51.976Z,70.60
2022-12-12T03:17:28.027Z,71.60
2022-12-12T03:20:17.240Z,74.70
2022-12-12T03:22:51.876Z,73.60
2022-12-12T03:25:36.413Z,71.90
2022-12-12T03:28:26.086Z,70.70
2022-12-12T03:31:00.774Z,69.80
2022-12-12T03:33:41.463Z,69.60
2022-12-12T03:36:26.900Z,69.00
2022-12-12T03:39:21.766Z,68.20
2022-12-12T03:42:27.740Z,70.30
2022-12-12T03:45:28.023Z,68.10
2022-12-12T03:48:05.798Z,67.90
2022-12-12T03:50:52.983Z,67.90
2022-12-12T03:53:30.370Z,69.70
2022-12-12T03:56:07.386Z,75.20
2022-12-12T03:58:44.450Z,75.60
2022-12-12T04:01:16.928Z,78.10
2022-12-12T04:04:12.729Z,81.30
2022-12-12T04:07:10.494Z,79.70
2022-12-12T04:09:59.163Z,76.50
2022-12-12T04:12:55.287Z,76.50
2022-12-12T04:15:49.215Z,73.50
2022-12-12T04:18:22.669Z,71.10
2022-12-12T04:21:38.025Z,72.10
2022-12-12T04:24:24.168Z,69.40
2022-12-12T04:27:09.454Z,73.20
2022-12-12T04:29:58.998Z,73.60
2022-12-12T04:32:32.408Z,71.40
2022-12-12T04:35:08.548Z,70.80
2022-12-12T04:38:00.296Z,72.00
2022-12-12T04:40:40.004Z,67.60
2022-12-12T04:43:31.737Z,72.30
2022-12-12T04:46:15.102Z,70.20
2022-12-12T04:49:17.987Z,68.90
2022-12-12T04:51:52.874Z,68.10
2022-12-12T04:54:59.836Z,69.80
2022-12-12T04:57:35.430Z,71.50
2022-12-12T05:00:12.369Z,68.40
2022-12-12T05:03:02.092Z,66.20
2022-12-12T05:06:12.962Z,66.10
2022-12-12T05:08:48.228Z,64.90
2022-12-12T05:11:23.782Z,63.70
2022-12-12T05:13:54.262Z,64.10
2022-12-12T05:16:42.488Z,64.70
2022-12-12T05:19:12.954Z,64.60
2022-12-12T05:21:43.173Z,68.20
2022-12-12T05:24:13.397Z,68.30
2022-12-12T05:26:43.696Z,72.40
2022-12-12T05:29:13.911Z,72.60
2022-12-12T05:31:44.182Z,74.00
2022-12-12T05:34:15.707Z,71.40
2022-12-12T05:36:45.982Z,69.10
2022-12-12T05:39:16.310Z,70.10
2022-12-12T05:41:47.039Z,68.60
2022-12-12T05:44:17.297Z,71.00
2022-12-12T05:46:47.522Z,65.70
2022-12-12T05:49:18.118Z,66.70
2022-12-12T05:51:50.293Z,69.60
2022-12-12T05:54:21.136Z,68.80
2022-12-12T05:56:52.638Z,70.60
2022-12-12T05:59:24.242Z,70.70
2022-12-12T06:01:54.950Z,70.80
2022-12-12T06:04:25.847Z,70.00
2022-12-12T06:06:56.389Z,70.40
2022-12-12T06:09:27.337Z,70.20
2022-12-12T06:11:58.235Z,70.40
2022-12-12T06:14:29.225Z,73.20
2022-12-12T06:16:59.892Z,75.20
2022-12-12T06:19:30.836Z,76.80
2022-12-12T06:22:01.133Z,80.90
2022-12-12T06:24:31.812Z,82.70
2022-12-12T06:27:02.119Z,82.70
2022-12-12T06:29:32.850Z,83.40
2022-12-12T06:32:03.839Z,84.40
2022-12-12T06:34:34.531Z,81.50
2022-12-12T06:37:05.135Z,79.40
2022-12-12T06:39:35.638Z,81.30
2022-12-12T06:42:06.414Z,83.20
2022-12-12T06:44:36.678Z,83.70
2022-12-12T06:47:07.392Z,83.10
2022-12-12T06:49:38.176Z,84.20
2022-12-12T06:52:09.274Z,84.40
2022-12-12T06:54:40.223Z,83.30
2022-12-12T06:57:12.483Z,81.60
2022-12-12T06:59:43.369Z,80.00
2022-12-12T07:02:15.722Z,79.50
2022-12-12T07:04:46.433Z,76.60
2022-12-12T07:07:17.193Z,80.30
2022-12-12T07:09:48.617Z,77.00
2022-12-12T07:12:18.859Z,79.10
2022-12-12T07:14:49.615Z,77.90
2022-12-12T07:17:20.600Z,74.30
2022-12-12T07:19:51.248Z,74.70
2022-12-12T07:22:21.969Z,76.90
2022-12-12T07:24:54.762Z,75.00
2022-12-12T07:27:25.467Z,78.20
2022-12-12T07:29:56.158Z,74.80
2022-12-12T07:32:26.886Z,73.40
2022-12-12T07:34:57.622Z,75.00
2022-12-12T07:37:29.003Z,73.90
2022-12-12T07:40:00.205Z,73.90
2022-12-12T07:42:31.023Z,74.20
2022-12-12T07:45:01.739Z,75.00
2022-12-12T07:47:32.829Z,76.10
2022-12-12T07:50:04.179Z,75.20
2022-12-12T07:52:34.797Z,75.90
2022-12-12T07:55:06.513Z,74.40
2022-12-12T07:57:37.211Z,74.70
2022-12-12T08:00:15.336Z,74.30
2022-12-12T08:02:45.647Z,74.80
2022-12-12T08:05:16.841Z,73.50
2022-12-12T08:07:49.134Z,73.30
2022-12-12T08:10:20.290Z,76.00
2022-12-12T08:12:50.964Z,77.30
2022-12-12T08:15:22.199Z,75.40
2022-12-12T08:17:53.151Z,77.40
2022-12-12T08:20:25.035Z,72.50
2022-12-12T08:22:55.702Z,74.80
2022-12-12T08:25:26.008Z,76.70
2022-12-12T08:27:56.332Z,75.50
2022-12-12T08:30:26.585Z,75.80
2022-12-12T08:32:57.367Z,72.50
2022-12-12T08:35:29.975Z,72.60
2022-12-12T08:38:01.986Z,76.20
2022-12-12T08:40:32.604Z,77.90
2022-12-12T08:43:03.283Z,77.30
2022-12-12T08:45:34.338Z,78.20
2022-12-12T08:48:05.276Z,79.90
2022-12-12T08:50:36.053Z,79.90
2022-12-12T08:53:06.840Z,80.30
2022-12-12T08:55:38.132Z,79.90
2022-12-12T08:58:09.096Z,81.70
2022-12-12T09:00:39.746Z,81.40
2022-12-12T09:03:10.165Z,80.50
2022-12-12T09:05:44.546Z,83.00
2022-12-12T09:08:26.407Z,84.00
2022-12-12T09:10:57.138Z,83.30
2022-12-12T09:13:27.881Z,83.80
2022-12-12T09:15:59.295Z,83.30
2022-12-12T09:18:30.852Z,83.10
2022-12-12T09:21:02.367Z,83.70
2022-12-12T09:23:33.276Z,84.30
2022-12-12T09:26:09.024Z,83.70
2022-12-12T09:28:39.957Z,81.30
2022-12-12T09:31:12.432Z,81.20
2022-12-12T09:33:44.981Z,80.00
2022-12-12T09:36:16.678Z,78.80
2022-12-12T09:38:47.585Z,76.20
2022-12-12T09:41:22.212Z,77.30
2022-12-12T09:44:11.223Z,76.00
2022-12-12T09:46:44.544Z,78.00
2022-12-12T09:49:43.539Z,81.80
2022-12-12T09:52:18.772Z,83.90
2022-12-12T09:54:49.669Z,85.00
2022-12-12T09:57:43.635Z,86.20
2022-12-12T10:00:17.375Z,87.10
2022-12-12T10:03:17.662Z,87.90
2022-12-12T10:09:14.650Z,89.10
2022-12-12T10:11:52.140Z,88.20
2022-12-12T10:14:47.319Z,90.00
2022-12-12T10:17:30.414Z,90.10
2022-12-12T10:20:09.904Z,88.80
2022-12-12T10:23:05.168Z,88.40
2022-12-12T10:25:44.797Z,89.70
2022-12-12T10:28:18.115Z,90.00
2022-12-12T10:31:03.831Z,90.30
2022-12-12T10:33:51.378Z,90.40
2022-12-12T10:36:39.827Z,90.30
2022-12-12T10:39:19.470Z,90.10
2022-12-12T10:42:04.222Z,88.60
2022-12-12T10:44:57.772Z,86.50
2022-12-12T10:47:28.435Z,84.50
2022-12-12T10:50:14.636Z,87.30
2022-12-12T10:52:45.662Z,89.30
2022-12-12T10:55:26.148Z,90.10
2022-12-12T10:58:08.337Z,88.60
2022-12-12T11:00:45.430Z,88.80
2022-12-12T11:03:43.514Z,89.80
2022-12-12T11:06:20.906Z,90.20
2022-12-12T11:09:03.049Z,90.10
2022-12-12T11:11:33.968Z,90.30
2022-12-12T11:14:06.026Z,90.70
2022-12-12T11:16:44.564Z,89.90
2022-12-12T11:19:29.030Z,89.90
2022-12-12T11:22:06.564Z,90.20
2022-12-12T11:24:39.260Z,89.20
2022-12-12T11:27:18.352Z,87.60
2022-12-12T11:30:16.221Z,88.90
2022-12-12T11:32:50.673Z,85.20
2022-12-12T11:35:48.755Z,88.70
2022-12-12T11:38:32.918Z,87.30
2022-12-12T11:41:10.338Z,85.60
2022-12-12T11:43:47.784Z,84.70
2022-12-12T11:46:18.719Z,87.00
2022-12-12T11:49:20.239Z,87.10
2022-12-12T11:51:51.511Z,86.60
2022-12-12T11:54:30.246Z,88.50
2022-12-12T11:57:16.948Z,88.50
2022-12-12T12:00:18.029Z,88.90
2022-12-12T12:03:09.090Z,88.40
2022-12-12T12:05:47.759Z,86.50
2022-12-12T12:08:41.812Z,86.20
2022-12-12T12:11:39.583Z,86.50
2022-12-12T12:14:34.596Z,88.50
2022-12-12T12:17:24.890Z,87.00
2022-12-12T12:20:14.391Z,87.20
2022-12-12T12:23:21.002Z,87.30
2022-12-12T12:26:12.077Z,87.60
2022-12-12T12:29:03.644Z,84.80
2022-12-12T12:31:53.634Z,86.10
2022-12-12T12:34:34.107Z,84.70
2022-12-12T12:37:16.830Z,85.00
2022-12-12T12:39:56.968Z,84.40
2022-12-12T12:42:53.795Z,85.60
2022-12-12T12:45:39.089Z,84.60
2022-12-12T12:48:29.672Z,84.30
2022-12-12T12:51:13.677Z,84.20
2022-12-12T12:53:52.691Z,83.80
2022-12-12T12:56:27.952Z,85.30
2022-12-12T12:59:11.981Z,83.90
2022-12-12T13:01:52.829Z,83.50
2022-12-12T13:04:43.719Z,82.70
2022-12-12T13:07:17.814Z,84.20
2022-12-12T13:10:00.410Z,83.70
2022-12-12T13:12:44.753Z,84.80
2022-12-12T13:15:34.873Z,85.40
2022-12-12T13:18:17.646Z,83.60
2022-12-12T13:21:11.237Z,83.10
2022-12-12T13:24:06.362Z,84.50
2022-12-12T13:27:03.990Z,82.80
2022-12-12T13:29:55.520Z,81.90
2022-12-12T13:32:40.687Z,81.70
2022-12-12T13:35:17.234Z,83.40
2022-12-12T13:37:55.347Z,84.80
2022-12-12T13:40:41.493Z,84.20
2022-12-12T13:43:44.200Z,84.00
2022-12-12T13:46:29.437Z,82.70
2022-12-12T13:49:08.551Z,84.30
2022-12-12T13:51:43.286Z,83.40
2022-12-12T13:54:14.703Z,84.60
2022-12-12T13:56:47.282Z,85.20
2022-12-12T13:59:29.759Z,85.10
2022-12-12T14:02:27.497Z,84.20
2022-12-12T14:05:18.508Z,85.90
2022-12-12T14:08:02.385Z,87.60
2022-12-12T14:10:54.268Z,87.30
2022-12-12T14:13:46.909Z,88.00
2022-12-12T14:16:18.025Z,88.20
2022-12-12T14:18:57.136Z,88.90
2022-12-12T14:21:41.797Z,89.40
2022-12-12T14:24:48.362Z,88.90
2022-12-12T14:27:19.179Z,89.10
2022-12-12T14:29:49.483Z,88.80
2022-12-12T14:32:51.399Z,89.20
2022-12-12T14:36:02.781Z,89.10
2022-12-12T14:38:39.583Z,89.40
2022-12-12T14:41:19.914Z,88.80
2022-12-12T14:44:36.121Z,88.20
2022-12-12T14:46:47.707Z,88.30
2022-12-12T14:49:20.817Z,88.20
2022-12-12T14:51:56.491Z,87.50
2022-12-12T14:54:28.918Z,87.90
2022-12-12T14:57:01.199Z,87.40
2022-12-12T14:59:49.814Z,87.00
2022-12-12T15:02:28.383Z,86.40
2022-12-12T15:05:05.174Z,86.20
2022-12-12T15:07:40.421Z,86.40
2022-12-12T15:10:32.955Z,86.10
2022-12-12T15:13:04.465Z,85.10
2022-12-12T15:15:37.790Z,85.50
2022-12-12T15:18:08.926Z,83.20
2022-12-12T15:20:39.449Z,85.50
2022-12-12T15:23:10.480Z,85.70
2022-12-12T15:25:51.344Z,85.80
2022-12-12T15:28:27.912Z,85.00
2022-12-12T15:31:00.000Z,85.80
2022-12-12T15:33:31.488Z,86.00
2022-12-12T15:36:09.502Z,85.70
2022-12-12T15:38:39.713Z,86.40
2022-12-12T15:41:13.748Z,87.00
2022-12-12T15:43:46.206Z,86.50
2022-12-12T15:46:17.764Z,86.20
2022-12-12T15:48:50.754Z,86.80
2022-12-12T15:51:25.332Z,84.90
2022-12-12T15:54:00.044Z,86.10
2022-12-12T15:56:32.446Z,83.80
2022-12-12T15:59:11.465Z,83.80
2022-12-12T16:01:41.778Z,85.00
2022-12-12T16:04:12.205Z,84.10
2022-12-12T16:06:44.942Z,85.90
2022-12-12T16:09:29.032Z,85.10
2022-12-12T16:12:02.546Z,86.60
2022-12-12T16:14:44.703Z,87.20
2022-12-12T16:17:23.919Z,87.00
2022-12-12T16:20:00.526Z,87.00
2022-12-12T16:22:44.252Z,86.90
2022-12-12T16:25:29.204Z,87.10
2022-12-12T16:28:08.307Z,86.60
2022-12-12T16:30:43.491Z,86.80
2022-12-12T16:33:39.562Z,86.20
2022-12-12T16:36:12.889Z,88.80
2022-12-12T16:38:44.828Z,87.00
2022-12-12T16:41:19.995Z,86.50
2022-12-12T16:43:50.279Z,87.00
2022-12-12T16:46:26.306Z,86.70
2022-12-12T16:49:07.406Z,86.00
2022-12-12T16:51:43.671Z,86.60
2022-12-12T16:54:19.011Z,89.00
2022-12-12T16:56:54.166Z,88.10
2022-12-12T16:59:24.422Z,87.70
2022-12-12T17:01:54.631Z,87.60
2022-12-12T17:04:26.538Z,88.40
2022-12-12T17:06:57.780Z,88.30
2022-12-12T17:09:30.248Z,88.60
2022-12-12T17:12:01.883Z,88.60
2022-12-12T17:14:34.009Z,88.80
2022-12-12T17:17:07.253Z,88.90
2022-12-12T17:19:37.642Z,88.40
2022-12-12T17:22:08.243Z,90.30
2022-12-12T17:24:38.522Z,88.90
2022-12-12T17:27:08.766Z,90.10
2022-12-12T17:29:39.076Z,89.20
2022-12-12T17:32:09.289Z,90.20
2022-12-12T17:34:39.547Z,90.20
2022-12-12T17:37:09.860Z,90.70
2022-12-12T17:39:40.303Z,90.00
2022-12-12T17:42:10.631Z,90.80
2022-12-12T17:44:41.432Z,90.70
2022-12-12T17:47:11.978Z,90.40
2022-12-12T17:49:42.185Z,90.50
2022-12-12T17:52:12.649Z,90.20
2022-12-12T17:54:43.443Z,90.00
2022-12-12T17:57:33.764Z,90.00
2022-12-12T18:00:04.212Z,90.20
2022-12-12T18:02:35.857Z,89.60
2022-12-12T18:05:06.400Z,90.00
2022-12-12T18:07:36.708Z,90.20
2022-12-12T18:10:10.965Z,90.30
2022-12-12T18:12:42.290Z,89.30
2022-12-12T18:15:14.881Z,88.70
2022-12-12T18:17:45.180Z,88.40
2022-12-12T18:20:16.754Z,88.20
2022-12-12T18:22:47.677Z,88.10
2022-12-12T18:25:18.156Z,89.70
2022-12-12T18:27:48.850Z,88.60
2022-12-12T18:30:19.227Z,89.70
2022-12-12T18:32:49.479Z,89.90
2022-12-12T18:35:21.428Z,90.00
2022-12-12T18:37:51.706Z,90.80
2022-12-12T18:40:21.934Z,90.60
2022-12-12T18:42:52.318Z,90.60
2022-12-12T18:45:23.003Z,91.00
2022-12-12T18:47:54.651Z,91.10
2022-12-12T18:50:24.982Z,91.20
2022-12-12T18:52:56.562Z,91.30
2022-12-12T18:55:31.942Z,91.30
2022-12-12T18:58:03.077Z,91.50
2022-12-12T19:00:33.355Z,91.50
2022-12-12T19:03:03.698Z,91.40
2022-12-12T19:05:33.933Z,91.40
2022-12-12T19:08:04.246Z,91.10
2022-12-12T19:10:36.027Z,91.50
2022-12-12T19:13:07.164Z,90.90
2022-12-12T19:15:37.556Z,90.80
2022-12-12T19:18:08.780Z,90.70
2022-12-12T19:20:39.779Z,91.10
2022-12-12T19:23:10.937Z,91.00
2022-12-12T19:25:42.949Z,90.50
2022-12-12T19:28:14.469Z,90.90
2022-12-12T19:30:45.703Z,91.10
2022-12-12T19:33:17.536Z,91.10
2022-12-12T19:35:48.159Z,90.90
2022-12-12T19:38:24.544Z,91.10
2022-12-12T19:40:55.801Z,91.20
2022-12-12T19:43:26.515Z,91.20
2022-12-12T19:46:23.568Z,90.70
2022-12-12T19:48:59.236Z,91.00
2022-12-12T19:51:34.602Z,91.10
2022-12-12T19:54:08.902Z,90.60
2022-12-12T19:56:44.314Z,90.70
2022-12-12T19:59:18.701Z,90.50
2022-12-12T20:01:50.247Z,90.80
2022-12-12T20:04:27.631Z,90.70
2022-12-12T20:06:59.454Z,90.50
2022-12-12T20:09:32.015Z,90.30
2022-12-12T20:12:04.621Z,90.30
2022-12-12T20:14:38.566Z,90.10
2022-12-12T20:17:09.365Z,89.50
2022-12-12T20:19:40.544Z,90.30
2022-12-12T20:22:11.122Z,90.00
2022-12-12T20:24:42.815Z,89.00
2022-12-12T20:27:13.121Z,90.20
2022-12-12T20:29:45.168Z,90.00
2022-12-12T20:32:16.028Z,90.20
2022-12-12T20:34:47.291Z,90.10
2022-12-12T20:37:20.142Z,89.80
2022-12-12T20:39:51.078Z,90.20
2022-12-12T20:42:21.285Z,90.40
2022-12-12T20:44:52.066Z,89.60
2022-12-12T20:47:24.579Z,89.30
2022-12-12T20:49:55.209Z,88.80
2022-12-12T20:52:25.976Z,88.00
2022-12-12T20:54:56.303Z,87.90
2022-12-12T20:57:27.119Z,87.40
2022-12-12T21:00:00.029Z,85.40
2022-12-12T21:02:30.778Z,83.70
2022-12-12T21:05:02.603Z,83.50
2022-12-12T21:07:35.304Z,84.30
2022-12-12T21:10:06.056Z,84.30
2022-12-12T21:12:37.127Z,84.70
2022-12-12T21:15:10.060Z,84.30
2022-12-12T21:17:40.344Z,83.70
2022-12-12T21:20:11.137Z,83.70
2022-12-12T21:22:41.377Z,83.60
2022-12-12T21:25:11.973Z,84.00
2022-12-12T21:27:42.881Z,84.60
2022-12-12T21:30:15.897Z,82.80
2022-12-12T21:32:47.055Z,82.20
2022-12-12T21:35:17.573Z,81.30
2022-12-12T21:37:48.028Z,79.40
2022-12-12T21:40:18.381Z,79.10
2022-12-12T21:42:48.727Z,79.30
2022-12-12T21:45:19.303Z,79.10
2022-12-12T21:47:49.873Z,77.30
2022-12-12T21:50:20.887Z,78.10
2022-12-12T21:53:15.625Z,76.90
2022-12-12T21:55:48.645Z,73.10
2022-12-12T21:58:19.466Z,72.80
2022-12-12T22:00:50.030Z,73.10
2022-12-12T22:03:20.510Z,72.00
2022-12-12T22:05:51.033Z,70.50
2022-12-12T22:08:33.428Z,71.20
2022-12-12T22:11:03.721Z,70.90
2022-12-12T22:13:39.641Z,69.30
2022-12-12T22:16:18.384Z,70.00
2022-12-12T22:18:58.585Z,67.90
2022-12-12T22:21:33.153Z,69.60
2022-12-12T22:24:04.332Z,68.60
2022-12-12T22:26:38.963Z,68.10
2022-12-12T22:29:13.294Z,68.00
2022-12-12T22:31:45.493Z,66.10
2022-12-12T22:34:19.508Z,67.40
2022-12-12T22:36:51.309Z,67.60
2022-12-12T22:39:25.478Z,68.00
2022-12-12T22:41:56.770Z,65.90
2022-12-12T22:44:28.858Z,66.50
2022-12-12T22:47:00.113Z,65.70
2022-12-12T22:49:30.616Z,66.90
2022-12-12T22:52:01.972Z,67.20
2022-12-12T22:54:32.952Z,67.00
2022-12-12T22:57:03.148Z,67.80
2022-12-12T22:59:33.495Z,66.90
2022-12-12T23:02:03.722Z,67.70
2022-12-12T23:04:34.024Z,68.20
2022-12-12T23:07:04.397Z,66.20
2022-12-12T23:09:36.245Z,67.40
2022-12-12T23:12:06.560Z,67.00
2022-12-12T23:14:36.826Z,66.00
2022-12-12T23:17:07.607Z,65.70
2022-12-12T23:19:37.923Z,65.50
2022-12-12T23:22:08.992Z,65.30
2022-12-12T23:24:39.481Z,64.40
2022-12-12T23:27:10.148Z,64.90
2022-12-12T23:29:40.869Z,62.80
2022-12-12T23:32:11.640Z,64.00
2022-12-12T23:34:42.194Z,64.30
2022-12-12T23:37:13.191Z,63.80
2022-12-12T23:39:43.469Z,64.10
2022-12-12T23:42:14.193Z,63.50
2022-12-12T23:44:44.803Z,63.40
2022-12-12T23:47:15.237Z,64.00
2022-12-12T23:49:45.461Z,62.90
2022-12-12T23:52:16.444Z,63.00
2022-12-12T23:54:46.760Z,62.60
2022-12-12T23:57:17.601Z,62.60
2022-12-12T23:59:48.364Z,65.00
